Time;durP1;ratioP1;P1;durP2;ratioP2;P2;SDS_P1;SDS_P2;PMS_P1;PMS_P2;Temp;Humidity;BMP_temperature;BMP_pressure;BME280_temperature;BME280_humidity;BME280_pressure;Samples;Min_cycle;Max_cycle;Signal;HPM_P1;HPM_P2
2022/05/13 05:33:16;;;;;;;13.68;6.47;;;;;;;18.70;76.90;100094.98;1830470;77;21161;-40
2022/05/13 05:35:43;;;;;;;19.23;7.53;;;;;;;18.76;76.82;100089.47;1830779;76;21075;-47
2022/05/13 05:38:09;;;;;;;21.17;6.95;;;;;;;18.82;76.06;100103.81;1850648;76;21112;-47
2022/05/13 05:40:38;;;;;;;17.52;6.53;;;;;;;18.84;75.67;100092.68;1844653;76;21052;-40
2022/05/13 05:43:08;;;;;;;22.82;6.53;;;;;;;18.87;76.23;100093.91;1842325;76;21540;-47
2022/05/13 05:45:36;;;;;;;13.98;7.45;;;;;;;18.98;76.25;100097.02;1866537;76;21617;-40
2022/05/13 05:48:04;;;;;;;21.40;6.78;;;;;;;19.07;74.93;100094.00;1870836;75;21515;-46
2022/05/13 05:50:31;;;;;;;14.98;7.12;;;;;;;19.07;74.70;100101.95;1835878;77;21077;-40
2022/05/13 05:52:57;;;;;;;20.55;8.93;;;;;;;19.09;75.02;100099.27;1823669;78;21532;-48
2022/05/13 05:58:13;;;;;;;22.27;7.20;;;;;;;19.25;74.80;100115.01;1795788;79;21643;-47
2022/05/13 06:00:43;;;;;;;18.87;7.17;;;;;;;19.31;72.96;100118.75;1795991;78;21028;-46
2022/05/13 06:03:09;;;;;;;14.30;8.25;;;;;;;19.22;73.21;100118.22;1790342;79;21038;-47
2022/05/13 06:05:36;;;;;;;18.60;8.15;;;;;;;19.19;74.38;100121.84;1799002;79;21051;-40
2022/05/13 06:08:04;;;;;;;25.60;8.43;;;;;;;19.21;73.71;100119.16;1868847;75;21052;-39
2022/05/13 06:10:31;;;;;;;18.87;8.40;;;;;;;19.19;73.88;100124.95;1864843;76;21536;-39
2022/05/13 06:12:58;;;;;;;30.82;9.30;;;;;;;19.19;73.51;100122.30;1868849;76;21020;-40
2022/05/13 06:15:25;;;;;;;20.43;9.40;;;;;;;19.22;72.37;100126.18;1876375;76;21099;-47
2022/05/13 06:17:54;;;;;;;14.30;8.80;;;;;;;19.21;71.36;100122.67;1876231;75;21020;-40
2022/05/13 06:20:23;;;;;;;21.17;9.28;;;;;;;19.20;71.30;100126.71;1873376;76;21587;-40
2022/05/13 06:22:51;;;;;;;26.07;8.48;;;;;;;19.25;70.46;100134.00;1810628;78;21084;-40
2022/05/13 06:25:19;;;;;;;17.60;9.10;;;;;;;19.28;69.73;100133.90;1783560;79;21024;-40
2022/05/13 06:27:47;;;;;;;21.42;7.75;;;;;;;19.34;68.85;100138.97;1800695;79;21462;-46
2022/05/13 06:30:21;;;;;;;17.40;8.38;;;;;;;19.40;67.28;100138.27;1840982;77;21020;-50
2022/05/13 06:32:49;;;;;;;22.05;8.10;;;;;;;19.45;66.33;100133.25;1841147;77;21548;-40
2022/05/13 06:35:15;;;;;;;15.30;10.45;;;;;;;19.47;66.24;100143.33;1836901;77;21603;-47
2022/05/13 06:37:42;;;;;;;17.87;9.83;;;;;;;19.47;66.58;100140.67;1847947;77;21083;-40
2022/05/13 06:40:10;;;;;;;18.62;10.43;;;;;;;19.48;67.07;100140.64;1863358;77;21032;-40
2022/05/13 06:42:36;;;;;;;24.72;10.20;;;;;;;19.54;65.43;100132.44;1803465;79;21008;-40
2022/05/13 06:45:05;;;;;;;22.00;12.20;;;;;;;19.61;65.19;100133.95;1841584;76;21020;-47
2022/05/13 06:47:32;;;;;;;17.32;10.93;;;;;;;19.72;64.09;100144.14;1868525;76;21040;-47
2022/05/13 06:50:02;;;;;;;15.55;8.63;;;;;;;19.79;63.75;100140.78;1875884;76;21435;-46
2022/05/13 06:52:29;;;;;;;17.57;9.50;;;;;;;19.87;62.67;100137.34;1870114;76;21063;-40
2022/05/13 06:54:56;;;;;;;15.65;8.05;;;;;;;19.99;62.07;100151.90;1844545;77;21141;-40
2022/05/13 06:57:22;;;;;;;19.23;8.33;;;;;;;20.10;61.18;100157.17;1826276;76;21068;-47
2022/05/13 06:59:50;;;;;;;16.42;6.90;;;;;;;20.15;59.99;100149.02;1831384;78;21005;-40
2022/05/13 07:02:17;;;;;;;14.75;6.87;;;;;;;20.10;58.68;100149.20;1836149;78;20969;-40
2022/05/13 07:04:47;;;;;;;14.83;7.28;;;;;;;20.00;58.10;100142.53;1836286;78;21508;-41
2022/05/13 07:07:14;;;;;;;14.18;6.80;;;;;;;19.87;57.56;100138.66;1829014;76;21008;-47
2022/05/13 07:09:40;;;;;;;18.40;5.50;;;;;;;19.74;57.59;100144.94;1829204;78;20981;-46
2022/05/13 07:12:10;;;;;;;9.10;5.20;;;;;;;19.64;56.77;100163.00;1824864;78;20997;-40
2022/05/13 07:14:37;;;;;;;11.25;5.33;;;;;;;19.62;56.67;100160.02;1796337;78;21497;-39
2022/05/13 07:17:04;;;;;;;7.12;4.50;;;;;;;19.69;56.30;100165.95;1836811;78;21028;-47
2022/05/13 07:19:31;;;;;;;16.32;6.37;;;;;;;19.77;55.62;100170.48;1826339;78;21475;-47
2022/05/13 07:21:57;;;;;;;8.50;4.65;;;;;;;19.86;55.18;100164.81;1829761;78;21596;-40
2022/05/13 07:24:24;;;;;;;9.38;4.42;;;;;;;19.95;53.74;100164.45;1819405;78;21139;-39
2022/05/13 07:26:50;;;;;;;8.78;3.40;;;;;;;20.04;53.39;100161.41;1823786;78;21086;-47
2022/05/13 07:29:17;;;;;;;8.75;3.75;;;;;;;20.14;52.39;100165.89;1823273;78;21493;-41
2022/05/13 07:31:44;;;;;;;13.43;4.58;;;;;;;20.25;51.19;100161.45;1839017;78;21587;-39
2022/05/13 07:34:11;;;;;;;17.02;6.87;;;;;;;20.33;52.08;100164.17;1838206;78;21020;-40
2022/05/13 07:36:38;;;;;;;13.10;5.42;;;;;;;20.44;51.06;100167.25;1831629;78;21332;-40
2022/05/13 07:41:49;;;;;;;11.80;3.52;;;;;;;20.68;48.58;100173.80;1820186;77;21036;-48
2022/05/13 07:44:16;;;;;;;8.50;3.37;;;;;;;20.70;48.65;100179.46;1797977;79;21081;-41
2022/05/13 07:46:44;;;;;;;5.62;3.17;;;;;;;20.70;46.19;100190.09;1783195;78;21058;-47
2022/05/13 07:49:10;;;;;;;10.95;4.80;;;;;;;20.65;45.88;100181.92;1790799;79;21479;-40
2022/05/13 07:51:38;;;;;;;7.30;3.67;;;;;;;20.63;44.83;100179.77;1795935;79;21798;-40
2022/05/13 07:54:04;;;;;;;27.60;6.87;;;;;;;20.61;45.93;100179.84;1802205;79;21055;-48
2022/05/13 07:56:31;;;;;;;8.85;2.98;;;;;;;20.68;44.39;100186.62;1802419;79;21982;-40
2022/05/13 07:59:02;;;;;;;25.72;7.00;;;;;;;20.70;43.97;100180.79;1786768;78;21077;-47
2022/05/13 08:01:25;;;;;;;8.08;3.05;;;;;;;20.64;45.03;100183.72;1784193;78;21083;-48
2022/05/13 08:03:52;;;;;;;17.20;3.80;;;;;;;20.53;44.46;100185.97;1802392;79;21051;-40
2022/05/13 08:06:18;;;;;;;7.17;2.98;;;;;;;20.41;45.64;100191.30;1776286;79;21047;-40
2022/05/13 08:08:46;;;;;;;9.65;2.92;;;;;;;20.30;44.83;100190.03;1821138;78;21065;-39
2022/05/13 08:11:14;;;;;;;7.05;2.83;;;;;;;20.25;45.52;100188.02;1828278;77;21079;-40
2022/05/13 08:13:41;;;;;;;14.53;2.47;;;;;;;20.23;45.52;100185.41;1823945;77;20981;-39
2022/05/13 08:16:13;;;;;;;11.40;2.75;;;;;;;20.19;43.29;100192.66;1817809;77;21690;-39
2022/05/13 08:18:41;;;;;;;11.15;2.90;;;;;;;20.14;43.65;100190.65;1812890;77;21583;-48
2022/05/13 08:21:08;;;;;;;8.60;2.52;;;;;;;20.15;44.62;100191.05;1807637;77;21101;-48
2022/05/13 08:23:36;;;;;;;5.03;2.20;;;;;;;20.28;44.82;100179.44;1809105;78;21000;-47
2022/05/13 08:26:03;;;;;;;14.15;2.50;;;;;;;20.49;45.24;100176.86;1808520;78;21022;-47
2022/05/13 08:28:30;;;;;;;7.35;2.12;;;;;;;20.72;44.20;100165.63;1833089;77;21021;-47
2022/05/13 08:30:56;;;;;;;3.27;2.27;;;;;;;20.91;44.53;100175.45;1828317;76;21026;-47
2022/05/13 08:33:24;;;;;;;7.25;2.35;;;;;;;21.07;42.71;100169.84;1839195;76;21645;-47
2022/05/13 08:35:52;;;;;;;13.30;2.22;;;;;;;21.17;41.39;100177.81;1830995;76;21080;-48
2022/05/13 08:38:24;;;;;;;9.98;1.55;;;;;;;21.22;40.54;100177.58;1806813;78;21034;-48
2022/05/13 08:41:03;;;;;;;2.40;1.65;;;;;;;21.20;39.66;100173.66;1826756;77;21120;-47
2022/05/13 08:43:58;;;;;;;6.70;1.40;;;;;;;21.22;38.60;100178.91;1824520;76;21535;-48
2022/05/13 08:46:38;;;;;;;5.50;1.67;;;;;;;21.23;39.39;100167.36;1836246;77;21117;-47
2022/05/13 08:49:38;;;;;;;2.30;1.10;;;;;;;21.34;38.87;100170.86;1829020;77;21085;-48
2022/05/13 08:55:17;;;;;;;8.95;1.15;;;;;;;21.40;36.63;100176.78;1674639;84;21060;-46
2022/05/13 08:57:45;;;;;;;5.07;1.20;;;;;;;21.46;37.01;100178.30;1676858;84;21012;-46
2022/05/13 09:00:20;;;;;;;15.23;1.98;;;;;;;21.57;36.61;100181.77;1677612;84;21649;-47
2022/05/13 09:02:55;;;;;;;13.50;1.95;;;;;;;21.60;34.45;100173.17;1672551;84;20998;-47
2022/05/13 09:05:31;;;;;;;8.05;2.25;;;;;;;21.61;35.48;100173.56;1676518;85;21164;-47
2022/05/13 09:07:57;;;;;;;17.07;1.85;;;;;;;21.71;35.45;100175.33;1676001;84;21552;-47
2022/05/13 09:10:25;;;;;;;11.80;0.95;;;;;;;21.84;35.50;100167.14;1685999;84;21079;-47
2022/05/13 09:13:20;;;;;;;17.37;1.65;;;;;;;21.95;36.18;100167.48;1700811;82;21050;-46
2022/05/13 09:15:52;;;;;;;8.15;1.67;;;;;;;22.10;34.78;100169.05;1699653;82;21096;-47
2022/05/13 09:18:35;;;;;;;20.20;1.62;;;;;;;22.06;34.10;100157.64;1643220;85;21562;-47
2022/05/13 09:21:06;;;;;;;9.65;1.75;;;;;;;21.99;34.73;100154.89;1640978;85;21065;-48
2022/05/13 09:23:32;;;;;;;10.32;2.33;;;;;;;21.97;35.36;100160.74;1767429;78;21015;-48
2022/05/13 09:26:13;;;;;;;14.25;2.25;;;;;;;22.01;35.14;100158.33;1808858;78;21126;-48
2022/05/13 09:29:07;;;;;;;11.55;2.30;;;;;;;22.00;35.31;100161.47;1790306;78;21000;-45
2022/05/13 09:31:44;;;;;;;10.50;2.83;;;;;;;22.01;35.26;100163.19;1835225;76;21011;-45
2022/05/13 09:34:30;;;;;;;9.53;2.10;;;;;;;21.94;34.74;100166.23;1806723;77;21002;-45
2022/05/13 09:37:12;;;;;;;10.08;1.98;;;;;;;21.86;35.79;100157.30;1806376;77;21020;-45
2022/05/13 09:39:43;;;;;;;8.83;1.77;;;;;;;21.90;35.93;100156.66;1794747;78;21071;-46
2022/05/13 09:42:26;;;;;;;12.47;2.27;;;;;;;22.00;35.90;100144.16;1791409;79;20964;-46
2022/05/13 09:45:29;;;;;;;11.08;1.82;;;;;;;22.12;33.92;100152.51;1829424;75;21022;-46
2022/05/13 09:48:10;;;;;;;12.63;2.67;;;;;;;22.12;34.20;100145.37;1823586;76;21485;-46
2022/05/13 09:50:45;;;;;;;7.30;1.82;;;;;;;22.12;34.30;100156.50;1831852;76;21540;-46
2022/05/13 09:53:26;;;;;;;10.43;1.60;;;;;;;22.17;34.56;100154.00;1836921;76;20964;-46
2022/05/13 09:55:55;;;;;;;9.33;1.57;;;;;;;22.23;34.39;100154.17;1835499;77;21030;-46
2022/05/13 09:58:27;;;;;;;11.50;1.52;;;;;;;22.33;35.17;100164.77;1833169;77;21523;-46
2022/05/13 10:01:04;;;;;;;16.97;3.50;;;;;;;22.37;33.45;100159.65;1838680;77;21063;-47
2022/05/13 10:03:36;;;;;;;3.40;1.70;;;;;;;22.36;33.42;100163.26;1831514;77;20971;-47
2022/05/13 10:06:14;;;;;;;8.70;1.47;;;;;;;22.38;33.17;100165.84;1800702;78;21047;-47
2022/05/13 10:08:57;;;;;;;6.50;1.40;;;;;;;22.34;33.25;100170.95;1810055;78;21027;-46
2022/05/13 10:14:33;;;;;;;6.75;1.65;;;;;;;22.19;33.39;100169.91;1829990;77;21594;-47
2022/05/13 10:17:24;;;;;;;6.97;2.55;;;;;;;22.16;34.49;100169.60;1826963;76;21041;-46
2022/05/13 10:19:55;;;;;;;3.08;1.40;;;;;;;22.28;33.50;100160.13;1809813;78;21051;-39
2022/05/13 10:22:49;;;;;;;9.00;1.90;;;;;;;22.48;34.27;100159.11;1828880;77;21007;-46
2022/05/13 10:25:20;;;;;;;10.78;1.98;;;;;;;22.71;33.94;100172.58;1834196;76;21038;-39
2022/05/13 10:27:57;;;;;;;14.95;1.50;;;;;;;22.89;32.42;100160.12;1822473;77;21016;-39
2022/05/13 10:30:46;;;;;;;7.80;1.92;;;;;;;23.04;32.18;100161.98;1819452;77;21063;-46
2022/05/13 10:33:21;;;;;;;7.45;1.30;;;;;;;23.26;31.61;100147.02;1825780;76;21036;-40
2022/05/13 10:36:11;;;;;;;11.38;1.62;;;;;;;23.59;31.88;100138.92;1818822;77;21028;-47
2022/05/13 10:39:01;;;;;;;10.03;1.82;;;;;;;23.96;31.78;100141.74;1831081;76;21122;-47
2022/05/13 10:41:48;;;;;;;8.53;1.55;;;;;;;24.29;30.97;100139.36;1819101;78;21110;-39
2022/05/13 10:44:57;;;;;;;9.68;1.50;;;;;;;24.37;29.25;100143.35;1844664;77;21657;-41
2022/05/13 10:47:40;;;;;;;6.70;1.42;;;;;;;24.25;29.04;100153.41;1856142;75;21079;-47
2022/05/13 10:50:20;;;;;;;8.23;1.32;;;;;;;24.12;30.30;100145.70;1842882;76;21052;-47
2022/05/13 10:53:13;;;;;;;3.98;1.10;;;;;;;24.08;29.34;100141.50;1801633;78;21047;-40
2022/05/13 10:56:19;;;;;;;8.10;1.65;;;;;;;24.01;29.34;100136.14;1788298;78;21558;-47
2022/05/13 10:58:57;;;;;;;6.00;1.85;;;;;;;23.89;29.53;100137.70;1799423;78;21059;-47
2022/05/13 11:01:57;;;;;;;7.72;1.52;;;;;;;23.80;29.17;100136.41;1791124;78;21598;-48
2022/05/13 11:04:50;;;;;;;5.60;1.65;;;;;;;23.71;29.77;100130.24;1778005;79;21074;-39
2022/05/13 11:07:32;;;;;;;4.47;1.42;;;;;;;23.76;30.12;100132.66;1798832;79;21036;-39
2022/05/13 11:10:31;;;;;;;9.98;1.40;;;;;;;23.84;30.01;100121.94;1738672;81;21754;-46
2022/05/13 11:13:09;;;;;;;4.70;1.02;;;;;;;23.82;28.24;100111.80;1769014;81;21370;-39
2022/05/13 11:16:01;;;;;;;3.02;1.00;;;;;;;23.74;29.72;100114.53;1766533;80;21053;-47
2022/05/13 11:18:39;;;;;;;1.37;0.80;;;;;;;23.74;29.58;100107.38;1749039;81;21058;-39
2022/05/13 11:21:43;;;;;;;2.15;0.95;;;;;;;23.73;29.50;100115.49;1779233;79;21146;-46
2022/05/13 11:27:46;;;;;;;5.87;1.47;;;;;;;23.62;30.44;100108.95;1746487;80;21541;-40
2022/05/13 11:30:19;;;;;;;8.80;1.62;;;;;;;23.65;29.94;100099.89;1761047;78;21131;-39
2022/05/13 11:32:59;;;;;;;6.83;1.52;;;;;;;23.60;30.02;100096.61;1797172;78;21477;-47
2022/05/13 11:35:40;;;;;;;8.08;1.17;;;;;;;23.56;29.87;100087.05;1816024;78;21075;-39
2022/05/13 11:38:15;;;;;;;3.92;0.80;;;;;;;23.52;29.69;100091.69;1815221;78;20984;-40
2022/05/13 11:40:56;;;;;;;6.22;1.17;;;;;;;23.48;29.88;100095.94;1793920;77;21552;-40
2022/05/13 11:43:58;;;;;;;5.65;1.00;;;;;;;23.52;29.95;100099.69;1812870;78;21538;-41
2022/05/13 11:46:57;;;;;;;5.12;1.20;;;;;;;23.56;30.21;100081.23;1762124;80;21054;-45
2022/05/13 11:49:32;;;;;;;4.42;1.20;;;;;;;23.59;30.50;100091.72;1762284;79;21615;-48
2022/05/13 11:52:28;;;;;;;6.37;1.62;;;;;;;23.66;30.57;100084.72;1718161;81;21407;-40
2022/05/13 11:55:17;;;;;;;2.90;0.88;;;;;;;23.75;31.16;100088.21;1675377;84;21162;-47
2022/05/13 11:57:47;;;;;;;6.47;1.50;;;;;;;23.75;30.16;100095.75;1700488;83;21053;-45
2022/05/13 12:00:31;;;;;;;5.72;1.00;;;;;;;23.74;30.16;100090.50;1713023;83;21079;-39
2022/05/13 12:03:12;;;;;;;6.72;2.25;;;;;;;23.77;30.33;100092.98;1739088;81;21010;-39
